Forside
METAR-TAF:

METAR-TAF

Lufthavne :

Rosecrans Memorial Airport

Saint Joseph, Missouri, USA

Breddekreds: 39-46-05N, længdekreds: 094-54-33W, højde: 251 m

Aktuelle vejr

Denne rapport blev lavet for 18 minutter siden, kl. 21:53 UTC
Vind 9 kt fra syd
Temperatur 13°C
Fugtighed 47%
Tryk 1016 hPa
Sigt: 16.1 km
skyfri

METAR: KSTJ 162153Z AUTO 18009KT 10SM CLR 13/02 A3001 RMK AO2 SLP163 T01330022

Tid: 16:11 (22:11 UTC)

Vejrudsigter

Denne rapport blev lavet for 4 timer og 45 minutter siden, kl. 17:26 UTC
Foreløbig gælder fra 16 på 18 UTC til 17 på 18 UTC
Vind 7 kt fra syd
Sigt: 10 km
skyfri
Fra 17 på 1100 UTC
Vind 9 kt fra nord
Sigt: 10 km
Brudte skyer i en højde af 4000 ft
Fra 17 på 1400 UTC
Vind 15 kt fra nordnordøst
Sigt: 10 km
Overskyet i en højde af 1500 ft

TAF: KSTJ 161726Z 1618/1718 17007KT P6SM SKC FM171100 36009KT P6SM BKN040 FM171400 03015KT P6SM OVC015

Vejrobservationer og prognoser fra mere end 4000 lufthavne (METAR og TAF).

De gule og røde prikker repræsenterer de meteorologiske stationer.

Flyt musen over at se navnet på stationen.

Så klik over at se vejr observationer og prognoser.

At skifte det kort: Klik på de grønne knapper med et sort kors for at zoome ind; på den grønne knap med en bindestreg for at zoome ud; eller på de grønne pile for tilstødende kort.


METAR-TAF: